Accueil
METAR-TAF:

METAR-TAF

Aéroports :

Comté de Franklin, Vermont, États-Unis

latitude: 44-56-25N, longitude: 073-05-51W, altitude: 69 m

Observation

Le bulletin a été fait il y a 12 minutes, à 03:36 UTC
Vent calme
Température -5°C
Humidité 93%
Pression 1017 hPa
Visibilité: 4.8 km
Ciel couvert à une hauteur de 1400 ft
neige faible

METAR: KFSO 120336Z AUTO 00000KT 3SM -SN OVC014 M05/M06 A3003 RMK AO2 T10501063

Heure: 22:48 (03:48 UTC)


TAF: absent

Observations et prévisions météorologiques de plus de 4000 aéroports (messages METAR et TAF).

Les stations disponibles sont représentées par des disques jaunes et rouges sur la carte.

Passer la souris dessus pour voir le nom de la station.

Cliquer dessus pour voir les observations et prévisions météorologiques.

Pour changer de carte: cliquez sur les boutons verts avec une croix noire pour zoomer, sur le bouton vert avec un tiret pour effectuer un zoom arrière, ou sur les flèches vertes pour les cartes adjacentes.


METAR-TAF: